EmailTwitter


Observations de surface / Royaume-Uni / EGLL (03772)

Régions: Québec | Canada | États-Unis | Europe | France | UK | Ailleurs
Station
Affichage
Infos & localisation pour EGLL (03772) | Aide pour décoder les METARs

Observations prises le 2017-07-26 à 20H20 UTC à LONDON/HEATHROW, UK (EGLL)

Etat du ciel: ciel variable.

Température: 18.0 Celsius

Point de rosée: 13.0 Celsius

Humidité relative: 73%

Vents: Ouest à 30 km/h ou 16 noeuds.

Pression au niveau moyen de la mer: 100.60 kilopascals.

Visibilité horizontale: 6.21 milles terrestres ou 9.94 kilomètres.

Observation METAR:

EGLL 262020Z 27016KT 9999 SCT022 18/13 Q1006=